Time;durP1;ratioP1;P1;durP2;ratioP2;P2;SDS_P1;SDS_P2;PMS_P1;PMS_P2;Temp;Humidity;BMP_temperature;BMP_pressure;BME280_temperature;BME280_humidity;BME280_pressure;Samples;Min_cycle;Max_cycle;Signal;HPM_P1;HPM_P2
2021/11/18 00:01:21;;;;;;;;;6.00;4.75;;;;;21.73;39.76;102547.91;4962426;28;51296;-44
2021/11/18 00:03:47;;;;;;;;;4.00;3.75;;;;;21.72;39.77;102548.94;4962965;28;51310;-48
2021/11/18 00:06:13;;;;;;;;;4.50;2.75;;;;;21.70;39.98;102543.63;4965201;28;52000;-43
2021/11/18 00:08:39;;;;;;;;;4.00;4.00;;;;;21.70;39.64;102554.66;4970639;28;51033;-48
2021/11/18 00:11:07;;;;;;;;;5.00;3.00;;;;;21.69;40.32;102550.19;4978095;28;51093;-45
2021/11/18 00:13:43;;;;;;;;;7.25;4.50;;;;;21.68;40.07;102556.75;4974809;28;51353;-44
2021/11/18 00:16:09;;;;;;;;;5.75;4.50;;;;;21.68;39.97;102551.22;4966962;28;51175;-45
2021/11/18 00:18:36;;;;;;;;;4.00;3.50;;;;;21.67;40.30;102546.72;4961282;28;52478;-43
2021/11/18 00:21:21;;;;;;;;;6.75;5.25;;;;;21.67;40.30;102556.91;4962382;28;51513;-47
2021/11/18 00:23:50;;;;;;;;;3.00;3.00;;;;;21.66;40.03;102555.19;4968595;28;51196;-42
2021/11/18 00:26:17;;;;;;;;;5.50;4.00;;;;;21.64;40.38;102555.41;4973554;28;51717;-41
2021/11/18 00:28:43;;;;;;;;;4.75;4.00;;;;;21.62;39.96;102554.75;4962325;28;51304;-44
2021/11/18 00:31:11;;;;;;;;;4.50;4.50;;;;;21.62;40.36;102554.75;4964810;28;51105;-45
2021/11/18 00:33:38;;;;;;;;;3.50;3.50;;;;;21.60;40.44;102545.81;4961777;28;51493;-44
2021/11/18 00:36:06;;;;;;;;;4.00;3.50;;;;;21.59;40.34;102539.44;4955577;28;51810;-45
2021/11/18 00:38:32;;;;;;;;;5.00;5.00;;;;;21.58;40.32;102537.72;4964003;28;51469;-49
2021/11/18 00:40:57;;;;;;;;;7.00;5.25;;;;;21.58;40.01;102526.69;4963555;28;51227;-49
2021/11/18 00:43:23;;;;;;;;;3.50;3.50;;;;;21.57;40.39;102524.97;4965163;28;51317;-43
2021/11/18 00:45:49;;;;;;;;;5.50;4.00;;;;;21.58;40.01;102525.84;4969057;28;52711;-46
2021/11/18 00:48:16;;;;;;;;;4.25;3.75;;;;;21.56;40.48;102519.63;4958713;28;52430;-45
2021/11/18 00:50:46;;;;;;;;;4.75;4.50;;;;;21.55;40.45;102521.53;4962246;28;51193;-48
2021/11/18 00:53:11;;;;;;;;;3.25;3.25;;;;;21.53;40.46;102523.63;4967382;28;51217;-46
2021/11/18 00:55:37;;;;;;;;;4.00;3.75;;;;;21.53;40.41;102515.34;4964289;28;51394;-43
2021/11/18 00:58:04;;;;;;;;;5.50;5.00;;;;;21.53;40.01;102509.00;4963076;28;51097;-43
2021/11/18 01:00:32;;;;;;;;;5.25;4.75;;;;;21.53;40.42;102520.00;4961903;28;51003;-42
2021/11/18 01:02:59;;;;;;;;;3.00;3.00;;;;;21.52;40.06;102527.44;4974569;28;51082;-45
2021/11/18 01:05:28;;;;;;;;;3.25;3.25;;;;;21.50;40.04;102520.41;4976530;28;51224;-46
2021/11/18 01:07:55;;;;;;;;;3.75;3.00;;;;;21.50;40.38;102517.66;4959244;28;51263;-46
2021/11/18 01:10:22;;;;;;;;;3.75;3.75;;;;;21.48;40.34;102522.50;4968966;28;51118;-45
2021/11/18 01:12:48;;;;;;;;;4.75;4.75;;;;;21.48;40.49;102525.25;4969192;28;51320;-46
2021/11/18 01:15:18;;;;;;;;;4.00;2.00;;;;;21.47;40.54;102531.81;4965318;28;51208;-46
2021/11/18 01:17:45;;;;;;;;;3.25;2.00;;;;;21.46;40.32;102530.06;4965108;28;52511;-45
2021/11/18 01:20:12;;;;;;;;;5.00;3.00;;;;;21.47;39.93;102548.38;4966526;28;51217;-46
2021/11/18 01:22:37;;;;;;;;;5.50;3.25;;;;;21.44;40.59;102541.31;4959918;28;51426;-47
2021/11/18 01:25:04;;;;;;;;;2.00;2.00;;;;;21.44;40.42;102543.19;4964098;28;51330;-45
2021/11/18 01:27:29;;;;;;;;;4.00;4.00;;;;;21.43;40.50;102542.34;4974254;28;51429;-46
2021/11/18 01:29:55;;;;;;;;;3.50;3.00;;;;;21.42;40.19;102543.41;4966600;28;50982;-42
2021/11/18 01:32:20;;;;;;;;;4.00;4.00;;;;;21.42;40.19;102539.78;4957706;28;51446;-46
2021/11/18 01:34:46;;;;;;;;;3.00;3.00;;;;;21.40;40.56;102542.72;4965116;28;52025;-45
2021/11/18 01:37:11;;;;;;;;;4.25;4.25;;;;;21.40;40.21;102537.22;4962179;28;51084;-48
2021/11/18 01:39:36;;;;;;;;;4.00;4.00;;;;;21.40;40.32;102536.38;4959594;28;51184;-45
2021/11/18 01:42:02;;;;;;;;;4.00;3.25;;;;;21.39;40.66;102540.16;4961930;28;50939;-44
2021/11/18 01:44:40;;;;;;;;;2.75;2.75;;;;;21.38;40.72;102539.31;4957536;28;51845;-47
2021/11/18 01:47:08;;;;;;;;;6.75;3.25;;;;;21.37;40.79;102545.88;4961269;28;51048;-44
2021/11/18 01:49:34;;;;;;;;;5.25;4.50;;;;;21.38;40.20;102546.72;4962445;28;51208;-48
2021/11/18 01:52:03;;;;;;;;;7.00;5.00;;;;;21.37;40.62;102545.03;4970564;28;51381;-49
2021/11/18 01:54:32;;;;;;;;;6.50;5.00;;;;;21.37;40.70;102556.03;4964565;28;52114;-49
2021/11/18 01:57:00;;;;;;;;;4.25;4.25;;;;;21.35;40.77;102561.72;4986821;28;51179;-46
2021/11/18 01:59:29;;;;;;;;;6.50;5.00;;;;;21.35;40.48;102569.13;4960601;28;51221;-49
2021/11/18 02:01:55;;;;;;;;;4.75;4.75;;;;;21.34;40.37;102560.00;4963916;28;51085;-46
2021/11/18 02:04:24;;;;;;;;;5.50;3.00;;;;;21.33;40.86;102561.06;4962328;28;51977;-46
2021/11/18 02:06:55;;;;;;;;;4.00;2.50;;;;;21.32;40.72;102562.97;4968584;28;51338;-45
2021/11/18 02:09:23;;;;;;;;;6.75;4.50;;;;;21.33;40.34;102561.06;4961745;28;51191;-44
2021/11/18 02:12:11;;;;;;;;;4.50;3.50;;;;;21.32;40.41;102557.44;4955887;28;51049;-40
2021/11/18 02:14:37;;;;;;;;;3.75;3.75;;;;;21.30;40.35;102565.06;4964126;28;51051;-44
2021/11/18 02:17:05;;;;;;;;;7.00;5.00;;;;;21.30;40.38;102569.72;4966862;28;50983;-45
2021/11/18 02:19:37;;;;;;;;;5.75;5.00;;;;;21.29;40.60;102563.34;4961761;28;51025;-44
2021/11/18 02:22:04;;;;;;;;;5.25;4.00;;;;;21.29;40.41;102566.09;4976081;28;50995;-41
2021/11/18 02:24:33;;;;;;;;;5.00;3.00;;;;;21.27;40.63;102559.06;4968829;27;52057;-46
2021/11/18 02:26:59;;;;;;;;;5.50;4.25;;;;;21.27;40.75;102564.56;4973509;28;51250;-42
2021/11/18 02:29:25;;;;;;;;;4.00;2.00;;;;;21.27;40.74;102567.34;4963432;28;51151;-42
2021/11/18 02:31:57;;;;;;;;;6.00;3.50;;;;;21.26;40.49;102565.63;4960335;28;51322;-46
2021/11/18 02:34:38;;;;;;;;;4.00;4.00;;;;;21.26;40.86;102560.97;4969648;28;51041;-48
2021/11/18 02:37:04;;;;;;;;;3.50;3.50;;;;;21.24;40.77;102560.22;4960267;28;51212;-45
2021/11/18 02:39:29;;;;;;;;;3.50;3.50;;;;;21.24;40.47;102560.22;4962070;28;51379;-47
2021/11/18 02:41:54;;;;;;;;;6.00;5.75;;;;;21.23;40.82;102569.56;4963263;28;50896;-45
2021/11/18 02:44:20;;;;;;;;;8.50;4.00;;;;;21.22;40.48;102567.84;4965476;28;52114;-46
2021/11/18 02:46:45;;;;;;;;;4.25;3.00;;;;;21.22;40.87;102567.84;4963326;28;51057;-41
2021/11/18 02:49:10;;;;;;;;;4.25;2.50;;;;;21.20;40.94;102558.91;4964488;28;51197;-46
2021/11/18 02:51:36;;;;;;;;;3.75;3.00;;;;;21.22;40.63;102561.47;4966667;28;51251;-45
2021/11/18 02:54:03;;;;;;;;;3.50;3.25;;;;;21.20;40.51;102558.91;4962951;28;51119;-42
2021/11/18 02:56:29;;;;;;;;;4.00;4.00;;;;;21.20;41.10;102561.66;4973362;28;51774;-47
2021/11/18 02:58:55;;;;;;;;;4.00;3.25;;;;;21.19;40.72;102570.13;4964582;28;51544;-45
2021/11/18 03:01:25;;;;;;;;;5.00;4.00;;;;;21.18;40.97;102577.53;4965432;28;51036;-45
2021/11/18 03:03:51;;;;;;;;;4.25;2.50;;;;;21.17;40.60;102580.47;4974402;28;51825;-43
2021/11/18 03:06:17;;;;;;;;;1.00;1.00;;;;;21.16;41.08;102582.38;4997394;28;51019;-42
2021/11/18 03:08:44;;;;;;;;;4.75;3.75;;;;;21.15;40.94;102577.88;4963642;28;51385;-44
2021/11/18 03:11:10;;;;;;;;;5.00;3.75;;;;;21.15;40.86;102577.03;4961828;28;51083;-46
2021/11/18 03:13:37;;;;;;;;;4.25;4.00;;;;;21.14;40.77;102576.16;4966757;28;51185;-43
2021/11/18 03:16:05;;;;;;;;;2.50;2.50;;;;;21.14;40.60;102592.69;4962473;28;51089;-45
2021/11/18 03:18:32;;;;;;;;;5.00;5.00;;;;;21.14;41.22;102587.19;4985424;28;51763;-47
2021/11/18 03:21:00;;;;;;;;;3.75;2.50;;;;;21.11;40.63;102582.06;4988862;28;51167;-44
2021/11/18 03:23:27;;;;;;;;;5.50;3.50;;;;;21.11;40.88;102582.06;4960644;28;51616;-45
2021/11/18 03:25:52;;;;;;;;;3.00;3.00;;;;;21.11;40.68;102582.06;4963584;28;51147;-44
2021/11/18 03:28:21;;;;;;;;;5.00;3.00;;;;;21.11;41.02;102582.06;4967387;28;52502;-42
2021/11/18 03:30:48;;;;;;;;;3.00;3.00;;;;;21.11;40.54;102581.22;4971836;28;51561;-44
2021/11/18 03:33:20;;;;;;;;;5.00;4.00;;;;;21.10;40.74;102585.88;4969568;28;51503;-44
2021/11/18 03:35:46;;;;;;;;;3.25;3.25;;;;;21.11;40.81;102590.34;4965097;28;51399;-42
2021/11/18 03:38:13;;;;;;;;;4.00;4.00;;;;;21.10;40.59;102585.00;4961713;28;51087;-45
2021/11/18 03:40:40;;;;;;;;;3.00;3.00;;;;;21.08;40.65;102587.94;4962924;28;51233;-43
2021/11/18 03:43:09;;;;;;;;;3.00;2.25;;;;;21.08;40.81;102595.38;4964159;28;51941;-44
2021/11/18 03:45:36;;;;;;;;;3.00;3.00;;;;;21.08;41.12;102587.09;4971524;28;51446;-45
2021/11/18 03:48:02;;;;;;;;;2.50;2.50;;;;;21.07;41.17;102580.72;4963930;28;51303;-39
2021/11/18 03:50:28;;;;;;;;;6.50;3.75;;;;;21.07;40.73;102582.63;4960643;28;51379;-44
2021/11/18 03:52:53;;;;;;;;;3.25;2.75;;;;;21.07;41.20;102582.63;4966283;28;51869;-43
2021/11/18 03:55:20;;;;;;;;;4.00;3.75;;;;;21.06;40.90;102584.53;4961032;28;51479;-47
2021/11/18 03:57:46;;;;;;;;;4.75;4.75;;;;;21.04;40.85;102594.84;4964466;28;51152;-42
2021/11/18 04:00:19;;;;;;;;;4.00;4.00;;;;;21.04;40.88;102603.13;4963917;28;51422;-43
2021/11/18 04:02:45;;;;;;;;;5.50;4.00;;;;;21.03;40.74;102601.41;4980596;28;52025;-46
2021/11/18 04:05:11;;;;;;;;;4.25;3.00;;;;;21.02;40.84;102594.19;4979182;27;51233;-42
2021/11/18 04:07:40;;;;;;;;;4.25;4.00;;;;;21.02;41.09;102594.19;4988102;28;51378;-43
2021/11/18 04:10:10;;;;;;;;;4.50;3.00;;;;;21.01;41.37;102601.59;5030961;27;51413;-45
2021/11/18 04:12:37;;;;;;;;;5.75;3.25;;;;;21.01;40.53;102598.84;4982900;28;52018;-42
2021/11/18 04:15:04;;;;;;;;;3.75;3.00;;;;;21.00;40.63;102602.63;4982790;27;50910;-41
2021/11/18 04:17:29;;;;;;;;;3.00;3.00;;;;;21.00;41.23;102601.78;4981722;28;51124;-45
2021/11/18 04:19:55;;;;;;;;;2.00;2.00;;;;;20.98;41.18;102603.88;4991552;27;51224;-42
2021/11/18 04:22:20;;;;;;;;;4.25;2.00;;;;;20.99;40.67;102624.88;4984913;28;51830;-42
2021/11/18 04:24:46;;;;;;;;;4.00;2.25;;;;;20.98;40.86;102621.25;5014915;27;50950;-42
2021/11/18 04:27:13;;;;;;;;;3.50;3.50;;;;;20.96;40.54;102625.25;4986836;28;51195;-44
2021/11/18 04:29:39;;;;;;;;;3.00;3.00;;;;;20.96;40.75;102623.34;4997266;27;51068;-43
2021/11/18 04:32:12;;;;;;;;;3.50;2.00;;;;;20.96;41.18;102626.09;5002514;28;50938;-45
2021/11/18 04:34:38;;;;;;;;;5.50;1.50;;;;;20.96;40.71;102630.75;5009214;28;51095;-46
2021/11/18 04:37:05;;;;;;;;;3.75;3.50;;;;;20.94;40.86;102622.66;5035291;27;51112;-42
2021/11/18 04:39:31;;;;;;;;;3.00;3.00;;;;;20.94;41.12;102628.16;5005311;28;51211;-44
2021/11/18 04:41:57;;;;;;;;;4.50;3.00;;;;;20.94;40.79;102630.06;5005201;28;51073;-45
2021/11/18 04:44:23;;;;;;;;;4.00;4.00;;;;;20.93;40.95;102637.47;5000311;28;51335;-45
2021/11/18 04:46:49;;;;;;;;;3.75;3.00;;;;;20.92;41.09;102633.00;5002553;28;50910;-45
2021/11/18 04:49:15;;;;;;;;;3.00;3.00;;;;;20.92;40.76;102637.66;4999982;28;51128;-44
2021/11/18 04:51:41;;;;;;;;;3.00;3.00;;;;;20.92;41.03;102644.00;5011389;28;51266;-42
2021/11/18 04:54:07;;;;;;;;;4.75;3.25;;;;;20.92;40.70;102643.16;5009140;27;50962;-45
2021/11/18 04:56:35;;;;;;;;;0.25;0.00;;;;;20.91;40.92;102649.72;5001185;28;51404;-46
2021/11/18 04:59:01;;;;;;;;;6.00;3.75;;;;;20.90;41.22;102657.13;5000132;28;51344;-43
2021/11/18 05:01:27;;;;;;;;;4.25;3.00;;;;;20.91;41.27;102655.22;5011793;28;51073;-47
2021/11/18 05:03:53;;;;;;;;;7.00;5.75;;;;;20.90;41.10;102659.88;5005442;27;51179;-41
2021/11/18 05:06:20;;;;;;;;;3.50;3.00;;;;;20.90;41.01;102661.78;5002315;27;51144;-45
2021/11/18 05:08:45;;;;;;;;;4.00;3.00;;;;;20.90;40.76;102656.25;5000780;28;51210;-43
2021/11/18 05:11:11;;;;;;;;;6.50;2.50;;;;;20.89;41.06;102658.16;5006604;27;51732;-48
2021/11/18 05:13:38;;;;;;;;;4.25;3.25;;;;;20.89;40.69;102651.78;5001967;28;51426;-43
2021/11/18 05:16:08;;;;;;;;;4.25;4.00;;;;;20.88;41.04;102648.19;5011315;28;51277;-44
2021/11/18 05:18:34;;;;;;;;;4.00;3.25;;;;;20.88;41.30;102655.59;4995839;27;50974;-45
2021/11/18 05:21:01;;;;;;;;;3.00;3.00;;;;;20.87;40.95;102654.75;4984894;28;51277;-45
2021/11/18 05:23:27;;;;;;;;;4.75;3.75;;;;;20.86;41.26;102661.28;5008148;28;50922;-45
2021/11/18 05:25:53;;;;;;;;;6.00;5.00;;;;;20.86;41.34;102658.53;5050910;27;51454;-47
2021/11/18 05:28:19;;;;;;;;;5.00;5.00;;;;;20.86;40.84;102665.94;5073158;27;51224;-44
2021/11/18 05:30:45;;;;;;;;;5.00;4.00;;;;;20.85;40.97;102661.47;5005413;28;51944;-43
2021/11/18 05:33:14;;;;;;;;;2.50;2.50;;;;;20.85;40.80;102661.47;5005741;28;51237;-44
2021/11/18 05:35:41;;;;;;;;;4.75;4.75;;;;;20.83;41.04;102656.13;5002014;28;50997;-42
2021/11/18 05:38:07;;;;;;;;;3.50;2.50;;;;;20.83;40.89;102658.88;5010284;28;51335;-42
2021/11/18 05:40:35;;;;;;;;;4.75;3.00;;;;;20.83;40.78;102660.78;5008871;28;53690;-46
2021/11/18 05:43:01;;;;;;;;;4.75;4.00;;;;;20.82;40.90;102656.31;5000300;27;51469;-46
2021/11/18 05:45:29;;;;;;;;;3.00;2.50;;;;;20.82;41.12;102656.31;5008660;28;51180;-43
2021/11/18 05:47:55;;;;;;;;;4.75;3.00;;;;;20.80;41.29;102663.91;5004772;28;51231;-45
2021/11/18 05:50:22;;;;;;;;;3.25;3.00;;;;;20.80;41.01;102669.41;4996188;28;52107;-41
2021/11/18 05:52:48;;;;;;;;;5.00;5.00;;;;;20.79;41.08;102671.31;5007324;28;51070;-46
2021/11/18 05:55:16;;;;;;;;;5.50;4.25;;;;;20.79;40.85;102670.44;4994302;27;51262;-42
2021/11/18 05:57:42;;;;;;;;;3.00;3.00;;;;;20.78;40.85;102672.34;5008074;28;51328;-44
2021/11/18 06:00:11;;;;;;;;;1.00;1.00;;;;;20.79;40.83;102675.94;5009204;28;51223;-43
2021/11/18 06:02:37;;;;;;;;;3.00;3.00;;;;;20.77;40.71;102700.94;5000153;28;51141;-45
2021/11/18 06:05:04;;;;;;;;;7.00;5.00;;;;;20.75;40.74;102695.59;4999705;28;51134;-48
2021/11/18 06:07:30;;;;;;;;;8.75;6.25;;;;;20.75;40.47;102694.75;5000018;28;51298;-45
2021/11/18 06:09:56;;;;;;;;;3.25;2.00;;;;;20.72;40.08;102693.19;5005754;28;51134;-42
2021/11/18 06:12:21;;;;;;;;;13.00;9.75;;;;;20.70;40.05;102695.28;5004032;27;51059;-44
2021/11/18 06:14:46;;;;;;;;;7.50;5.00;;;;;20.70;40.33;102689.75;5000445;28;51318;-44
2021/11/18 06:17:12;;;;;;;;;9.75;8.25;;;;;20.70;39.74;102699.91;5001218;28;51494;-43
2021/11/18 06:19:37;;;;;;;;;13.25;11.25;;;;;20.67;39.73;102697.53;5007344;27;51167;-44
2021/11/18 06:22:03;;;;;;;;;10.75;9.00;;;;;20.66;39.78;102704.09;5001979;28;51048;-41
2021/11/18 06:24:29;;;;;;;;;10.75;8.00;;;;;20.63;39.51;102691.50;5008418;28;51375;-41
2021/11/18 06:26:56;;;;;;;;;7.75;7.25;;;;;20.64;39.34;102692.41;5006648;28;51126;-44
2021/11/18 06:29:23;;;;;;;;;9.75;6.50;;;;;20.62;39.68;102689.78;5004481;27;51937;-43
2021/11/18 06:31:50;;;;;;;;;9.25;7.25;;;;;20.63;39.53;102688.75;5005972;28;51736;-45
2021/11/18 06:34:16;;;;;;;;;10.50;6.25;;;;;20.64;39.93;102693.25;4985326;27;51359;-43
2021/11/18 06:36:43;;;;;;;;;7.00;5.00;;;;;20.64;40.70;102693.25;5006647;28;51398;-46
2021/11/18 06:39:09;;;;;;;;;6.00;5.00;;;;;20.64;40.44;102701.50;4985266;28;53385;-42
2021/11/18 06:41:35;;;;;;;;;6.25;5.75;;;;;20.65;40.65;102703.22;4995891;28;51412;-44
2021/11/18 06:44:00;;;;;;;;;8.75;6.75;;;;;20.65;40.62;102711.47;4997789;28;51349;-44
2021/11/18 06:46:26;;;;;;;;;7.75;6.00;;;;;20.67;39.94;102706.66;5004390;27;51110;-45
2021/11/18 06:48:53;;;;;;;;;6.50;6.00;;;;;20.67;40.65;102711.31;5001079;28;51183;-43
2021/11/18 06:51:22;;;;;;;;;6.00;6.00;;;;;20.67;40.42;102712.16;4991185;27;51092;-44
2021/11/18 06:53:50;;;;;;;;;8.00;5.75;;;;;20.68;40.74;102710.25;5001347;28;51132;-45
2021/11/18 06:56:16;;;;;;;;;4.00;4.00;;;;;20.67;40.57;102717.66;5001546;28;51122;-43
2021/11/18 06:58:42;;;;;;;;;7.75;7.75;;;;;20.68;40.73;102713.00;4997807;27;52909;-46
2021/11/18 07:01:07;;;;;;;;;6.00;4.25;;;;;20.71;40.94;102712.66;4996925;28;51089;-42
2021/11/18 07:03:33;;;;;;;;;6.50;4.00;;;;;20.74;40.77;102723.31;4998356;28;52766;-42
2021/11/18 07:05:59;;;;;;;;;6.00;4.50;;;;;20.74;40.67;102726.09;5003004;28;52495;-41
2021/11/18 07:08:25;;;;;;;;;6.00;6.00;;;;;20.75;40.45;102725.91;5006890;27;51153;-45
2021/11/18 07:10:50;;;;;;;;;7.25;7.00;;;;;20.77;40.40;102730.38;5009171;27;51161;-45
2021/11/18 07:13:22;;;;;;;;;9.75;6.75;;;;;20.75;40.25;102725.91;4993504;28;51223;-41
2021/11/18 07:15:51;;;;;;;;;7.00;6.00;;;;;20.75;40.61;102731.41;5002377;28;51208;-43
2021/11/18 07:18:16;;;;;;;;;3.50;2.00;;;;;20.75;40.40;102736.91;5004342;27;51827;-42
2021/11/18 07:20:43;;;;;;;;;20.25;14.75;;;;;20.77;40.68;102727.63;5012858;28;51544;-45
2021/11/18 07:23:09;;;;;;;;;25.00;12.75;;;;;20.79;40.70;102725.53;5014572;28;51334;-44
2021/11/18 07:25:35;;;;;;;;;15.00;9.75;;;;;20.82;40.79;102728.78;5004231;28;50895;-45
2021/11/18 07:28:01;;;;;;;;;18.75;13.25;;;;;20.82;40.60;102720.50;5007138;27;51061;-45
2021/11/18 07:30:27;;;;;;;;;54.00;28.75;;;;;20.84;41.17;102723.09;5003590;28;51552;-46
2021/11/18 07:32:53;;;;;;;;;45.75;24.75;;;;;20.86;41.19;102718.28;5007043;27;51117;-45
2021/11/18 07:35:20;;;;;;;;;30.00;17.00;;;;;20.87;40.91;102717.25;5011912;28;51082;-45
2021/11/18 07:37:45;;;;;;;;;32.00;20.75;;;;;20.88;41.25;102721.69;5008499;27;54039;-47
2021/11/18 07:40:14;;;;;;;;;34.75;16.00;;;;;20.88;41.58;102725.31;4986891;27;51187;-50
2021/11/18 07:42:40;;;;;;;;;30.50;14.00;;;;;20.93;41.60;102716.50;5007732;28;51321;-46
2021/11/18 07:45:08;;;;;;;;;33.00;15.00;;;;;20.94;41.76;102710.81;5000798;28;51000;-48
2021/11/18 07:47:34;;;;;;;;;26.50;15.00;;;;;20.96;41.92;102714.25;5005155;27;51840;-49
2021/11/18 07:50:00;;;;;;;;;29.50;17.75;;;;;20.99;42.30;102715.78;5007793;27;51778;-50
2021/11/18 07:52:26;;;;;;;;;25.00;14.00;;;;;21.01;42.69;102728.34;5001678;27;51317;-51
2021/11/18 07:54:51;;;;;;;;;32.50;14.50;;;;;21.02;42.21;102713.50;4999641;28;51255;-50
2021/11/18 07:57:16;;;;;;;;;34.50;17.50;;;;;21.05;42.54;102720.59;5000985;28;51236;-50
2021/11/18 07:59:42;;;;;;;;;27.00;14.00;;;;;21.08;42.84;102711.09;5000203;28;51222;-52
2021/11/18 08:02:07;;;;;;;;;27.50;16.50;;;;;21.09;42.73;102716.41;4986669;28;51185;-54
2021/11/18 08:04:33;;;;;;;;;23.25;12.25;;;;;21.11;43.16;102717.09;4986646;28;51136;-52
2021/11/18 08:07:03;;;;;;;;;25.25;15.00;;;;;21.13;42.96;102728.78;5003743;28;51252;-49
2021/11/18 08:09:28;;;;;;;;;31.00;16.00;;;;;21.15;43.33;102742.38;5005230;28;51133;-52
2021/11/18 08:11:56;;;;;;;;;22.00;12.75;;;;;21.19;43.99;102743.75;5007517;28;51170;-49
2021/11/18 08:14:22;;;;;;;;;20.50;11.75;;;;;21.22;44.00;102748.88;5010256;27;51210;-49
2021/11/18 08:16:48;;;;;;;;;23.50;13.50;;;;;21.24;45.81;102747.66;5007369;28;51218;-49
2021/11/18 08:19:15;;;;;;;;;17.75;12.25;;;;;21.27;45.70;102743.72;5011131;28;51093;-52
2021/11/18 08:21:42;;;;;;;;;17.50;14.50;;;;;21.28;45.85;102749.06;4993924;27;51254;-51
2021/11/18 08:24:09;;;;;;;;;20.75;12.50;;;;;21.32;46.04;102749.53;4991458;28;51060;-53
2021/11/18 08:26:35;;;;;;;;;24.00;13.75;;;;;21.33;46.12;102746.59;5007094;28;51980;-53
2021/11/18 08:29:01;;;;;;;;;21.00;12.00;;;;;21.37;46.18;102751.78;5004446;28;51349;-49
2021/11/18 08:31:28;;;;;;;;;15.50;9.25;;;;;21.38;46.13;102750.72;5004812;27;51136;-52
2021/11/18 08:33:54;;;;;;;;;18.25;12.50;;;;;21.39;45.78;102750.53;5004884;28;51268;-49
2021/11/18 08:36:21;;;;;;;;;16.00;8.50;;;;;21.41;46.32;102742.09;5005685;28;52131;-50
2021/11/18 08:38:47;;;;;;;;;17.00;9.00;;;;;21.46;47.47;102754.25;5003751;27;51406;-49
2021/11/18 08:41:13;;;;;;;;;12.75;9.50;;;;;21.74;46.80;102760.09;4987802;28;51369;-50
2021/11/18 08:43:43;;;;;;;;;12.25;11.25;;;;;22.19;45.44;102752.81;5005011;28;51282;-47
2021/11/18 08:46:11;;;;;;;;;14.25;9.00;;;;;22.67;44.77;102761.63;5005489;28;53963;-47
2021/11/18 08:48:38;;;;;;;;;17.00;10.25;;;;;23.13;44.28;102761.38;5012700;27;51441;-54
2021/11/18 08:51:05;;;;;;;;;15.50;10.50;;;;;23.51;43.13;102762.03;5010131;28;51607;-47
2021/11/18 08:53:32;;;;;;;;;13.25;10.50;;;;;23.87;42.77;102767.53;5009309;28;51100;-52
2021/11/18 08:55:59;;;;;;;;;12.50;9.00;;;;;24.19;42.18;102758.66;5007096;28;51102;-48
2021/11/18 08:58:27;;;;;;;;;11.75;8.00;;;;;24.50;41.62;102762.09;5002085;28;51078;-49
2021/11/18 09:00:57;;;;;;;;;21.50;12.50;;;;;24.79;40.47;102760.97;4989590;28;51216;-53
2021/11/18 09:03:25;;;;;;;;;14.00;10.00;;;;;25.06;40.11;102765.59;5010885;28;51390;-49
2021/11/18 09:05:51;;;;;;;;;20.25;11.25;;;;;25.31;40.61;102760.34;5004747;28;51435;-47
2021/11/18 09:08:18;;;;;;;;;15.00;10.00;;;;;25.55;40.73;102765.34;5007578;28;51192;-46
2021/11/18 09:10:44;;;;;;;;;19.75;11.50;;;;;25.78;40.95;102764.09;5006679;27;51212;-46
2021/11/18 09:13:11;;;;;;;;;14.25;12.75;;;;;26.00;41.17;102765.63;5009169;28;51070;-48
2021/11/18 09:15:37;;;;;;;;;13.00;9.50;;;;;26.23;40.37;102761.53;5004411;28;51195;-46
2021/11/18 09:18:05;;;;;;;;;15.25;11.00;;;;;26.42;40.06;102771.81;5007849;27;51253;-49
2021/11/18 09:20:31;;;;;;;;;18.25;13.00;;;;;26.62;40.31;102771.75;5010752;28;51148;-45
2021/11/18 09:23:00;;;;;;;;;17.50;12.50;;;;;26.80;40.03;102771.94;5004299;28;51286;-46
2021/11/18 09:25:28;;;;;;;;;11.00;8.50;;;;;27.01;39.18;102776.34;5009121;27;53304;-46
2021/11/18 09:27:55;;;;;;;;;14.00;11.00;;;;;27.20;38.27;102769.88;5008773;28;51285;-47
2021/11/18 09:30:31;;;;;;;;;12.25;10.75;;;;;27.40;37.98;102774.44;5004875;28;51103;-49
2021/11/18 09:32:57;;;;;;;;;18.00;10.25;;;;;27.59;37.43;102779.03;5008737;27;51107;-50
2021/11/18 09:35:36;;;;;;;;;11.50;9.50;;;;;27.77;37.13;102787.53;5009880;28;51480;-48
2021/11/18 09:38:02;;;;;;;;;9.25;8.50;;;;;27.95;36.85;102783.13;5005824;27;51013;-47
2021/11/18 09:40:53;;;;;;;;;10.25;10.00;;;;;28.13;35.95;102783.16;5005501;28;51280;-48
2021/11/18 09:43:24;;;;;;;;;14.75;9.25;;;;;28.29;35.29;102785.41;5009525;27;51006;-48
2021/11/18 09:46:09;;;;;;;;;12.00;11.25;;;;;28.44;35.15;102776.69;5006983;28;51171;-50
2021/11/18 09:48:59;;;;;;;;;10.00;10.00;;;;;28.58;34.57;102775.47;5005766;28;51036;-47
2021/11/18 09:51:37;;;;;;;;;14.00;10.75;;;;;28.73;34.04;102781.50;4992253;28;51335;-47
2021/11/18 09:55:04;;;;;;;;;10.75;10.00;;;;;28.86;34.03;102779.66;5006531;28;51244;-47
2021/11/18 09:57:35;;;;;;;;;11.75;8.75;;;;;28.99;33.54;102791.56;4967547;28;51851;-48
2021/11/18 10:00:03;;;;;;;;;12.50;10.50;;;;;29.08;33.34;102791.25;4964631;28;51630;-50
2021/11/18 10:02:37;;;;;;;;;11.00;10.25;;;;;29.14;32.90;102788.34;4984442;28;51189;-51
2021/11/18 10:05:40;;;;;;;;;9.75;7.00;;;;;29.25;32.45;102781.13;5008892;28;51154;-49
2021/11/18 10:08:13;;;;;;;;;12.00;9.50;;;;;29.35;32.47;102773.03;5018132;28;51722;-47
2021/11/18 10:11:07;;;;;;;;;12.25;9.25;;;;;29.46;32.08;102788.97;5007552;28;51282;-51
2021/11/18 10:14:08;;;;;;;;;11.00;9.75;;;;;29.56;31.86;102796.81;5008101;27;51206;-51
2021/11/18 10:16:45;;;;;;;;;12.75;7.50;;;;;29.67;31.60;102793.19;5004579;28;52830;-50
2021/11/18 10:19:13;;;;;;;;;12.75;11.25;;;;;29.75;31.26;102804.03;5004593;28;52058;-51
2021/11/18 10:21:42;;;;;;;;;13.50;11.25;;;;;29.83;30.77;102800.06;5008854;27;51291;-49
2021/11/18 10:24:18;;;;;;;;;15.50;13.75;;;;;29.91;31.24;102808.09;5008815;28;51325;-46
2021/11/18 10:26:54;;;;;;;;;13.25;12.00;;;;;29.98;30.77;102805.19;5007627;28;51083;-50
2021/11/18 10:29:24;;;;;;;;;8.50;8.00;;;;;30.05;30.49;102804.00;5005335;28;51834;-51
2021/11/18 10:31:55;;;;;;;;;9.25;9.25;;;;;30.11;30.30;102803.03;5004465;28;51309;-51
2021/11/18 10:34:26;;;;;;;;;14.25;10.50;;;;;30.17;29.95;102806.81;5006079;28;51351;-51
2021/11/18 10:37:10;;;;;;;;;9.50;7.75;;;;;30.23;30.10;102808.66;5007290;27;51355;-50
2021/11/18 10:39:36;;;;;;;;;14.00;10.50;;;;;30.31;30.02;102808.28;5003494;27;51950;-53
2021/11/18 10:42:09;;;;;;;;;14.75;9.75;;;;;30.33;30.38;102803.31;5005546;28;51263;-53
2021/11/18 10:45:12;;;;;;;;;14.00;12.75;;;;;30.15;30.23;102811.81;5009109;27;50985;-50
2021/11/18 10:47:59;;;;;;;;;7.75;6.25;;;;;29.90;30.28;102804.44;5038418;27;52095;-51
2021/11/18 10:50:42;;;;;;;;;12.75;11.00;;;;;29.65;30.29;102811.28;5018515;27;51046;-51
2021/11/18 10:53:14;;;;;;;;;14.25;12.25;;;;;29.42;30.95;102798.91;5003695;27;51507;-45
2021/11/18 10:55:44;;;;;;;;;16.00;12.75;;;;;29.18;31.40;102802.66;5004897;28;51130;-46
2021/11/18 10:58:34;;;;;;;;;22.25;19.25;;;;;28.94;32.24;102798.91;5000333;28;51794;-46
2021/11/18 11:01:29;;;;;;;;;19.25;18.25;;;;;28.70;32.63;102793.13;5007614;28;52608;-50
2021/11/18 11:03:57;;;;;;;;;25.75;16.50;;;;;28.49;32.95;102801.94;5001212;28;51556;-46
2021/11/18 11:06:43;;;;;;;;;20.00;15.75;;;;;28.30;33.69;102803.84;5009430;27;51666;-48
2021/11/18 11:09:08;;;;;;;;;22.50;16.50;;;;;28.17;35.60;102802.00;5013684;28;51462;-49
2021/11/18 11:12:25;;;;;;;;;27.50;18.75;;;;;28.05;36.59;102802.97;5010140;28;51214;-47
2021/11/18 11:14:56;;;;;;;;;25.25;20.75;;;;;27.95;37.43;102803.47;5021905;28;51205;-45
2021/11/18 11:17:32;;;;;;;;;26.75;19.00;;;;;27.87;37.13;102798.16;5008604;28;51094;-49
2021/11/18 11:20:22;;;;;;;;;16.75;16.75;;;;;27.79;37.42;102801.22;5006683;28;51286;-48
2021/11/18 11:22:59;;;;;;;;;23.00;16.50;;;;;27.69;37.07;102793.38;5009314;28;51076;-48
2021/11/18 11:26:01;;;;;;;;;23.00;16.50;;;;;27.62;37.91;102789.75;5008309;28;51531;-48
2021/11/18 11:28:59;;;;;;;;;20.25;16.25;;;;;27.55;37.57;102791.72;5007117;27;51054;-46